Time;durP1;ratioP1;P1;durP2;ratioP2;P2;SDS_P1;SDS_P2;PMS_P1;PMS_P2;Temp;Humidity;BMP_temperature;BMP_pressure;BME280_temperature;BME280_humidity;BME280_pressure;Samples;Min_cycle;Max_cycle;Signal;HPM_P1;HPM_P2
2023/06/08 00:01:54;;;;;;;20.77;10.27;;;12.60;99.90;;;;;;5119656;28;20057;-64
2023/06/08 00:04:22;;;;;;;19.60;10.48;;;12.60;99.90;;;;;;5120756;28;20109;-63
2023/06/08 00:06:49;;;;;;;21.30;10.27;;;12.50;99.90;;;;;;5121187;27;20044;-64
2023/06/08 00:09:16;;;;;;;22.30;10.48;;;12.60;99.90;;;;;;5120697;28;20094;-64
2023/06/08 00:11:42;;;;;;;20.02;10.80;;;12.70;99.90;;;;;;5119766;28;20213;-64
2023/06/08 00:14:08;;;;;;;21.08;9.75;;;12.70;99.90;;;;;;5119948;28;20089;-64
2023/06/08 00:16:38;;;;;;;20.30;9.80;;;12.70;99.90;;;;;;5119221;28;20040;-64
2023/06/08 00:19:03;;;;;;;20.20;9.57;;;12.70;99.90;;;;;;5120074;28;20143;-63
2023/06/08 00:21:33;;;;;;;25.85;11.30;;;12.70;99.90;;;;;;5119681;28;20055;-63
2023/06/08 00:23:59;;;;;;;23.40;10.23;;;12.60;99.90;;;;;;5119481;28;20121;-64
2023/06/08 00:26:26;;;;;;;18.90;10.50;;;12.70;99.90;;;;;;5119430;28;20043;-64
2023/06/08 00:28:52;;;;;;;25.90;10.70;;;12.70;99.90;;;;;;5119209;28;20612;-65
2023/06/08 00:31:18;;;;;;;19.88;10.75;;;12.70;99.90;;;;;;5119303;28;20040;-63
2023/06/08 00:33:44;;;;;;;24.23;10.93;;;12.60;99.90;;;;;;5119144;28;20481;-64
2023/06/08 00:36:10;;;;;;;24.33;11.10;;;12.60;99.90;;;;;;5119773;28;20115;-64
2023/06/08 00:38:36;;;;;;;20.15;11.27;;;12.70;99.90;;;;;;5117857;28;20048;-64
2023/06/08 00:41:02;;;;;;;20.85;10.60;;;12.60;99.90;;;;;;5119241;28;20035;-64
2023/06/08 00:43:27;;;;;;;20.25;12.23;;;12.50;99.90;;;;;;5119072;28;20047;-64
2023/06/08 00:45:55;;;;;;;22.02;10.55;;;12.40;99.90;;;;;;5118724;28;20046;-65
2023/06/08 00:48:22;;;;;;;22.27;12.18;;;12.50;99.90;;;;;;5119608;28;20032;-64
2023/06/08 00:50:50;;;;;;;19.15;9.25;;;12.50;99.90;;;;;;5118477;28;20035;-64
2023/06/08 00:53:16;;;;;;;18.55;9.23;;;12.40;99.90;;;;;;5119399;28;20041;-64
2023/06/08 00:55:43;;;;;;;17.98;9.35;;;12.40;99.90;;;;;;5119047;28;20043;-64
2023/06/08 00:58:13;;;;;;;15.18;8.82;;;12.40;99.90;;;;;;5119003;28;20043;-64
2023/06/08 01:00:42;;;;;;;18.95;8.55;;;12.40;99.90;;;;;;5118726;28;20077;-63
2023/06/08 01:03:08;;;;;;;19.50;8.93;;;12.40;99.90;;;;;;5118519;28;20091;-63
2023/06/08 01:05:38;;;;;;;17.80;8.25;;;12.40;99.90;;;;;;5119252;28;20048;-64
2023/06/08 01:08:11;;;;;;;16.65;7.90;;;12.50;99.90;;;;;;5118488;28;20511;-63
2023/06/08 01:10:42;;;;;;;16.50;7.83;;;12.40;99.90;;;;;;5078823;28;1092583;-63
2023/06/08 01:13:15;;;;;;;16.08;7.55;;;12.40;99.90;;;;;;5119432;28;20052;-62
2023/06/08 01:15:47;;;;;;;16.35;7.72;;;12.40;99.90;;;;;;5119643;28;20107;-63
2023/06/08 01:18:17;;;;;;;16.95;7.20;;;12.40;99.90;;;;;;5119754;28;20507;-63
2023/06/08 01:21:20;;;;;;;19.88;8.55;;;12.40;99.90;;;;;;5119299;28;20625;-63
2023/06/08 01:24:00;;;;;;;16.08;7.32;;;12.50;99.90;;;;;;5118832;28;20060;-63
2023/06/08 01:26:26;;;;;;;13.18;7.00;;;12.50;99.90;;;;;;5119314;28;20123;-64
2023/06/08 01:28:52;;;;;;;15.30;6.88;;;12.40;99.90;;;;;;5119483;28;20040;-64
2023/06/08 01:31:18;;;;;;;15.63;6.53;;;12.50;99.90;;;;;;5119504;28;20092;-63
2023/06/08 01:33:44;;;;;;;15.75;6.57;;;12.40;99.90;;;;;;5118907;28;20100;-63
2023/06/08 01:36:15;;;;;;;14.48;6.55;;;12.40;99.90;;;;;;5119673;28;20048;-63
2023/06/08 01:39:05;;;;;;;13.25;6.72;;;12.40;99.90;;;;;;5119340;28;20044;-63
2023/06/08 01:41:37;;;;;;;15.38;7.22;;;12.40;99.90;;;;;;5119220;28;20059;-63
2023/06/08 01:44:06;;;;;;;18.65;7.07;;;12.40;99.90;;;;;;5119386;28;20047;-63
2023/06/08 01:46:32;;;;;;;15.70;7.13;;;12.40;99.90;;;;;;5118486;28;20052;-63
2023/06/08 01:49:00;;;;;;;16.25;7.80;;;12.50;99.90;;;;;;5117976;28;20126;-63
2023/06/08 01:51:26;;;;;;;14.55;8.45;;;12.40;99.90;;;;;;5118743;28;20044;-62
2023/06/08 01:54:02;;;;;;;23.17;10.27;;;12.50;99.90;;;;;;5118871;28;20055;-63
2023/06/08 01:56:31;;;;;;;19.45;9.38;;;12.40;99.90;;;;;;5117165;28;20096;-64
2023/06/08 01:58:57;;;;;;;20.80;10.02;;;12.40;99.90;;;;;;5118265;28;20619;-62
2023/06/08 02:01:22;;;;;;;19.83;10.60;;;12.40;99.90;;;;;;5119005;28;20043;-63
2023/06/08 02:03:48;;;;;;;18.42;9.88;;;12.40;99.90;;;;;;5118748;28;20040;-63
2023/06/08 02:06:14;;;;;;;17.08;9.65;;;12.40;99.90;;;;;;5118969;28;20049;-64
2023/06/08 02:08:40;;;;;;;19.27;8.93;;;12.40;99.90;;;;;;5118385;28;20050;-63
2023/06/08 02:11:05;;;;;;;16.02;8.05;;;12.40;99.90;;;;;;5118339;28;20040;-63
2023/06/08 02:13:34;;;;;;;14.23;8.48;;;12.40;99.90;;;;;;5118448;28;20048;-64
2023/06/08 02:16:00;;;;;;;20.48;8.45;;;12.40;99.90;;;;;;5117179;28;20052;-63
2023/06/08 02:18:26;;;;;;;20.77;8.27;;;12.40;99.90;;;;;;5118927;28;20046;-63
2023/06/08 02:20:52;;;;;;;17.85;8.05;;;12.50;99.90;;;;;;5118298;28;20484;-63
2023/06/08 02:23:18;;;;;;;21.30;7.95;;;12.40;99.90;;;;;;5118731;28;20050;-63
2023/06/08 02:25:46;;;;;;;17.60;8.30;;;12.40;99.90;;;;;;5118581;28;20405;-62
2023/06/08 02:28:11;;;;;;;15.23;8.23;;;12.40;99.90;;;;;;5118587;28;20040;-64
2023/06/08 02:30:37;;;;;;;15.38;7.97;;;12.40;99.90;;;;;;5118194;28;20040;-63
2023/06/08 02:33:03;;;;;;;16.02;7.85;;;12.30;99.90;;;;;;5117901;28;20055;-62
2023/06/08 02:35:28;;;;;;;15.27;8.02;;;12.40;99.90;;;;;;5117247;28;20067;-63
2023/06/08 02:37:54;;;;;;;19.25;8.43;;;12.40;99.90;;;;;;5118073;28;20099;-63
2023/06/08 02:40:20;;;;;;;16.13;8.02;;;12.30;99.90;;;;;;5118489;28;20098;-63
2023/06/08 02:42:45;;;;;;;15.70;8.05;;;12.40;99.90;;;;;;5117959;28;20051;-63
2023/06/08 02:45:11;;;;;;;14.10;7.70;;;12.50;99.90;;;;;;5117911;28;20119;-63
2023/06/08 02:47:37;;;;;;;16.00;7.93;;;12.40;99.90;;;;;;5118149;28;20039;-63
2023/06/08 02:50:03;;;;;;;15.30;7.38;;;12.50;99.90;;;;;;5118390;28;20027;-62
2023/06/08 02:52:28;;;;;;;15.98;7.25;;;12.50;99.90;;;;;;5118317;28;20047;-63
2023/06/08 02:54:54;;;;;;;17.52;7.32;;;12.50;99.90;;;;;;5117875;28;20039;-64
2023/06/08 02:57:20;;;;;;;14.52;6.35;;;12.50;99.90;;;;;;5118369;28;20063;-63
2023/06/08 02:59:46;;;;;;;14.32;6.20;;;12.40;99.90;;;;;;5118036;28;20048;-63
2023/06/08 03:02:11;;;;;;;14.40;8.00;;;12.40;99.90;;;;;;5117516;28;20195;-63
2023/06/08 03:04:38;;;;;;;17.52;6.93;;;12.40;99.90;;;;;;5117950;28;20047;-63
2023/06/08 03:07:04;;;;;;;15.60;5.57;;;12.50;99.90;;;;;;5117953;28;20051;-63
2023/06/08 03:09:29;;;;;;;13.35;6.32;;;12.40;99.90;;;;;;5117544;28;20036;-63
2023/06/08 03:11:56;;;;;;;11.07;5.40;;;12.40;99.90;;;;;;5117690;28;20872;-63
2023/06/08 03:14:28;;;;;;;16.00;5.15;;;12.50;99.90;;;;;;5118159;28;20067;-63
2023/06/08 03:17:02;;;;;;;16.73;5.50;;;12.40;99.90;;;;;;5117862;28;20087;-63
2023/06/08 03:19:30;;;;;;;16.45;5.10;;;12.40;99.90;;;;;;5117503;28;20048;-62
2023/06/08 03:22:00;;;;;;;15.55;5.90;;;12.40;99.90;;;;;;5117737;28;20399;-62
2023/06/08 03:24:31;;;;;;;11.05;4.57;;;12.40;99.90;;;;;;5117658;28;20375;-63
2023/06/08 03:27:00;;;;;;;12.18;4.65;;;12.40;99.90;;;;;;5118173;28;20051;-63
2023/06/08 03:29:26;;;;;;;16.15;5.03;;;12.50;99.90;;;;;;5117488;28;20526;-61
2023/06/08 03:31:52;;;;;;;17.08;5.22;;;12.40;99.90;;;;;;5117572;28;20040;-63
2023/06/08 03:34:18;;;;;;;15.60;5.65;;;12.40;99.90;;;;;;5117613;28;20040;-63
2023/06/08 03:36:45;;;;;;;16.35;5.50;;;12.40;99.90;;;;;;5117243;28;20075;-62
2023/06/08 03:39:11;;;;;;;15.02;5.43;;;12.40;99.90;;;;;;5117664;28;20043;-63
2023/06/08 03:41:37;;;;;;;14.38;5.88;;;12.40;99.90;;;;;;5115886;28;20115;-63
2023/06/08 03:44:03;;;;;;;14.98;5.72;;;12.50;99.90;;;;;;5117793;28;20054;-63
2023/06/08 03:46:28;;;;;;;15.52;5.95;;;12.50;99.90;;;;;;5117466;28;20036;-63
2023/06/08 03:48:54;;;;;;;25.35;7.90;;;12.50;99.90;;;;;;5120981;28;20085;-63
2023/06/08 03:51:21;;;;;;;15.15;6.25;;;12.50;99.90;;;;;;5121287;28;20047;-64
2023/06/08 03:53:48;;;;;;;13.05;5.28;;;12.50;99.90;;;;;;5120554;28;20047;-64
2023/06/08 03:56:14;;;;;;;15.55;5.53;;;12.50;99.90;;;;;;5121506;28;20094;-63
2023/06/08 03:58:41;;;;;;;16.80;5.25;;;12.50;99.90;;;;;;5120942;28;20046;-63
2023/06/08 04:01:14;;;;;;;13.63;5.93;;;12.40;99.90;;;;;;5121050;28;20061;-62
2023/06/08 04:03:41;;;;;;;14.00;5.88;;;12.50;99.90;;;;;;5120771;28;20048;-62
2023/06/08 04:06:08;;;;;;;14.88;5.78;;;12.40;99.90;;;;;;5120868;28;20032;-62
2023/06/08 04:08:39;;;;;;;19.33;5.90;;;12.50;99.90;;;;;;5119955;28;20103;-62
2023/06/08 04:11:06;;;;;;;12.48;5.53;;;12.50;99.90;;;;;;5120834;28;20059;-62
2023/06/08 04:13:32;;;;;;;12.85;5.38;;;12.50;99.90;;;;;;5120829;28;20043;-63
2023/06/08 04:15:58;;;;;;;13.05;5.25;;;12.50;99.90;;;;;;5120496;28;20465;-63
2023/06/08 04:18:24;;;;;;;13.27;5.20;;;12.50;99.90;;;;;;5121010;28;20040;-62
2023/06/08 04:20:49;;;;;;;13.95;5.80;;;12.50;99.90;;;;;;5120468;28;20055;-63
2023/06/08 04:23:15;;;;;;;11.98;5.15;;;12.50;99.90;;;;;;5120839;28;20031;-63
2023/06/08 04:25:41;;;;;;;17.70;6.15;;;12.50;99.90;;;;;;5120628;28;20047;-63
2023/06/08 04:28:06;;;;;;;15.68;5.97;;;12.50;99.90;;;;;;5120754;28;20042;-63
2023/06/08 04:30:32;;;;;;;16.15;5.95;;;12.60;99.90;;;;;;5120383;28;20534;-63
2023/06/08 04:32:59;;;;;;;14.98;5.68;;;12.60;99.90;;;;;;5118353;28;20032;-62
2023/06/08 04:35:25;;;;;;;13.20;5.70;;;12.60;99.90;;;;;;5120719;28;20059;-63
2023/06/08 04:37:51;;;;;;;14.88;6.00;;;12.60;99.90;;;;;;5120208;28;20056;-62
2023/06/08 04:40:16;;;;;;;16.02;6.32;;;12.60;99.90;;;;;;5120845;28;20040;-62
2023/06/08 04:42:44;;;;;;;17.52;6.70;;;12.60;99.90;;;;;;5120142;28;20055;-63
2023/06/08 04:45:11;;;;;;;17.98;6.45;;;12.60;99.90;;;;;;5119203;28;20039;-64
2023/06/08 04:47:37;;;;;;;14.75;7.10;;;12.60;99.90;;;;;;5118149;28;20576;-63
2023/06/08 04:50:08;;;;;;;13.90;6.22;;;12.70;99.90;;;;;;5120421;28;20116;-63
2023/06/08 04:52:40;;;;;;;14.33;6.30;;;12.70;99.90;;;;;;5120495;28;20040;-63
2023/06/08 04:55:13;;;;;;;24.33;7.60;;;12.80;99.90;;;;;;5118224;28;20044;-63
2023/06/08 04:57:42;;;;;;;14.35;6.25;;;12.60;99.90;;;;;;5120333;28;20050;-62
2023/06/08 05:00:09;;;;;;;17.67;6.47;;;12.70;99.90;;;;;;5118424;28;20047;-63
2023/06/08 05:02:37;;;;;;;15.23;6.72;;;12.80;99.90;;;;;;5119625;27;20051;-63
2023/06/08 05:05:03;;;;;;;18.85;6.25;;;12.80;99.90;;;;;;5119520;28;20032;-62
2023/06/08 05:07:29;;;;;;;15.30;5.38;;;12.80;99.90;;;;;;5119768;28;20047;-61
2023/06/08 05:09:56;;;;;;;16.20;5.35;;;12.90;99.90;;;;;;5120119;28;20166;-62
2023/06/08 05:12:22;;;;;;;12.18;5.30;;;12.90;99.90;;;;;;5119238;28;20098;-63
2023/06/08 05:14:48;;;;;;;17.30;5.90;;;13.00;99.90;;;;;;5119904;28;20450;-63
2023/06/08 05:17:14;;;;;;;15.27;5.50;;;13.00;99.90;;;;;;5119673;28;20061;-63
2023/06/08 05:19:39;;;;;;;14.63;5.57;;;12.90;99.90;;;;;;5119570;28;20047;-63
2023/06/08 05:22:05;;;;;;;14.75;5.22;;;12.90;99.90;;;;;;5119199;28;20047;-63
2023/06/08 05:24:31;;;;;;;17.42;6.88;;;12.90;99.90;;;;;;5119367;28;20044;-63
2023/06/08 05:26:56;;;;;;;15.57;6.15;;;13.00;99.90;;;;;;5119897;28;20482;-62
2023/06/08 05:29:22;;;;;;;17.95;6.85;;;12.90;99.90;;;;;;5119156;28;20438;-62
2023/06/08 05:31:49;;;;;;;13.13;5.60;;;13.00;99.90;;;;;;5119464;28;20146;-63
2023/06/08 05:34:15;;;;;;;13.77;6.05;;;13.00;99.90;;;;;;5119186;28;20047;-63
2023/06/08 05:36:40;;;;;;;16.95;6.60;;;13.10;99.90;;;;;;5119302;28;20054;-63
2023/06/08 05:39:06;;;;;;;18.85;6.53;;;13.20;99.90;;;;;;5117703;28;20059;-62
2023/06/08 05:41:32;;;;;;;16.50;5.82;;;13.20;99.90;;;;;;5119097;28;20036;-61
2023/06/08 05:43:58;;;;;;;15.32;6.18;;;13.20;99.90;;;;;;5117943;28;20569;-63
2023/06/08 05:46:24;;;;;;;13.95;5.50;;;13.20;99.90;;;;;;5118683;28;20039;-62
2023/06/08 05:48:49;;;;;;;17.02;6.20;;;13.30;99.90;;;;;;5117927;28;20040;-63
2023/06/08 05:51:15;;;;;;;15.70;6.57;;;13.20;99.90;;;;;;5118735;28;20102;-60
2023/06/08 05:53:41;;;;;;;17.98;5.63;;;13.30;99.90;;;;;;5118584;28;20043;-61
2023/06/08 05:56:07;;;;;;;16.67;5.53;;;13.40;99.90;;;;;;5118421;28;20078;-61
2023/06/08 05:58:32;;;;;;;13.38;5.10;;;13.40;99.90;;;;;;5118719;28;20464;-61
2023/06/08 06:00:59;;;;;;;18.55;5.22;;;13.40;99.90;;;;;;5118850;28;20684;-60
2023/06/08 06:03:25;;;;;;;13.13;4.90;;;13.50;99.90;;;;;;5118487;28;20164;-61
2023/06/08 06:05:50;;;;;;;11.60;4.60;;;13.50;99.90;;;;;;5119080;28;20476;-61
2023/06/08 06:08:16;;;;;;;14.80;4.93;;;13.60;99.90;;;;;;5115990;28;20063;-62
2023/06/08 06:10:42;;;;;;;15.52;4.78;;;13.70;99.90;;;;;;5114749;28;20105;-61
2023/06/08 06:13:07;;;;;;;12.82;4.43;;;13.60;99.90;;;;;;5114976;28;20118;-60
2023/06/08 06:15:33;;;;;;;13.23;4.72;;;13.70;99.90;;;;;;5114919;28;20047;-61
2023/06/08 06:17:59;;;;;;;16.38;4.40;;;14.00;99.90;;;;;;5115358;28;20794;-62
2023/06/08 06:20:27;;;;;;;15.68;4.97;;;14.00;99.90;;;;;;5114123;28;20493;-61
2023/06/08 06:22:53;;;;;;;13.13;4.75;;;14.10;99.90;;;;;;5115303;28;20055;-63
2023/06/08 06:25:21;;;;;;;14.20;4.72;;;14.10;99.90;;;;;;5114407;28;20472;-62
2023/06/08 06:27:47;;;;;;;17.00;5.75;;;14.10;99.90;;;;;;5114786;28;20057;-62
2023/06/08 06:30:13;;;;;;;14.90;4.60;;;14.10;99.90;;;;;;5115017;28;20075;-62
2023/06/08 06:32:39;;;;;;;14.20;4.72;;;14.00;99.90;;;;;;5114319;28;20058;-62
2023/06/08 06:35:05;;;;;;;15.52;4.97;;;14.10;99.90;;;;;;5114929;28;20043;-62
2023/06/08 06:37:34;;;;;;;15.65;4.60;;;14.20;99.90;;;;;;5114578;28;20036;-63
2023/06/08 06:40:01;;;;;;;15.18;4.70;;;14.20;99.90;;;;;;5113963;28;20047;-62
2023/06/08 06:42:27;;;;;;;16.48;4.60;;;14.40;99.90;;;;;;5114682;28;20497;-62
2023/06/08 06:44:53;;;;;;;11.63;5.22;;;14.30;99.90;;;;;;5113225;28;20073;-62
2023/06/08 06:47:18;;;;;;;15.85;5.68;;;14.20;99.90;;;;;;5114789;28;20047;-62
2023/06/08 06:49:44;;;;;;;16.67;4.88;;;14.00;99.90;;;;;;5114796;28;20055;-62
2023/06/08 06:52:10;;;;;;;17.00;5.03;;;14.20;99.90;;;;;;5113680;28;20052;-62
2023/06/08 06:54:35;;;;;;;16.75;5.20;;;14.20;99.90;;;;;;5096007;28;20044;-62
2023/06/08 06:57:01;;;;;;;12.90;5.45;;;14.40;99.90;;;;;;5114728;28;20040;-62
2023/06/08 06:59:28;;;;;;;13.98;4.95;;;14.50;99.90;;;;;;5114533;28;20051;-62
2023/06/08 07:01:54;;;;;;;15.02;5.30;;;14.80;99.90;;;;;;5114802;28;20150;-62
2023/06/08 07:04:21;;;;;;;16.80;4.88;;;14.90;99.90;;;;;;5114559;28;20086;-62
2023/06/08 07:06:47;;;;;;;14.60;4.60;;;14.90;99.90;;;;;;5114629;28;20084;-61
2023/06/08 07:09:13;;;;;;;13.55;4.80;;;15.00;99.90;;;;;;5114041;28;20054;-62
2023/06/08 07:11:39;;;;;;;17.05;6.15;;;15.00;99.90;;;;;;5114256;28;20044;-61
2023/06/08 07:14:05;;;;;;;12.18;4.85;;;15.20;99.90;;;;;;5115120;28;20047;-61
2023/06/08 07:16:31;;;;;;;14.48;5.25;;;15.30;99.90;;;;;;5114452;28;20090;-61
2023/06/08 07:18:56;;;;;;;15.70;5.10;;;15.30;99.90;;;;;;5113642;28;20032;-61
2023/06/08 07:21:23;;;;;;;12.32;4.38;;;15.40;99.90;;;;;;5114445;28;20180;-61
2023/06/08 07:23:50;;;;;;;13.75;4.55;;;15.50;99.90;;;;;;5116066;28;20039;-61
2023/06/08 07:26:16;;;;;;;10.77;4.13;;;15.60;99.90;;;;;;5118514;28;20055;-61
2023/06/08 07:28:42;;;;;;;14.63;5.10;;;15.70;99.90;;;;;;5118157;28;20047;-61
2023/06/08 07:31:08;;;;;;;16.20;6.15;;;15.70;99.90;;;;;;5118490;28;20134;-61
2023/06/08 07:33:33;;;;;;;15.65;4.35;;;15.80;99.90;;;;;;5117551;28;20572;-60
2023/06/08 07:35:59;;;;;;;12.48;4.35;;;15.80;99.90;;;;;;5116766;28;20055;-61
2023/06/08 07:38:25;;;;;;;15.45;4.88;;;15.80;99.90;;;;;;5117992;28;20040;-61
2023/06/08 07:40:50;;;;;;;13.60;5.20;;;16.00;99.90;;;;;;5117340;28;20043;-61
2023/06/08 07:43:16;;;;;;;12.52;5.03;;;16.00;99.90;;;;;;5117485;28;20085;-61
2023/06/08 07:45:42;;;;;;;16.67;5.20;;;16.00;99.90;;;;;;5116781;28;20608;-61
2023/06/08 07:48:08;;;;;;;14.02;5.00;;;16.00;99.90;;;;;;5118053;28;20093;-61
2023/06/08 07:50:33;;;;;;;16.05;5.13;;;16.20;99.90;;;;;;5117363;28;20250;-61
2023/06/08 07:52:59;;;;;;;13.85;4.45;;;16.40;99.90;;;;;;5117963;27;20043;-61
2023/06/08 07:55:25;;;;;;;13.95;4.97;;;16.40;99.90;;;;;;5116334;28;20087;-60
2023/06/08 07:57:50;;;;;;;15.32;4.55;;;16.30;99.90;;;;;;5117527;28;20059;-59
2023/06/08 08:00:17;;;;;;;15.20;4.93;;;16.40;99.90;;;;;;5117424;28;20568;-60
2023/06/08 08:02:43;;;;;;;12.25;4.80;;;16.50;99.90;;;;;;5116868;28;20051;-59
2023/06/08 08:05:09;;;;;;;16.10;5.13;;;16.40;99.90;;;;;;5116568;28;20078;-61
2023/06/08 08:07:36;;;;;;;16.10;5.63;;;16.40;99.90;;;;;;5116397;28;20078;-60
2023/06/08 08:10:03;;;;;;;16.25;4.97;;;16.40;99.90;;;;;;5118228;28;20495;-59
2023/06/08 08:12:28;;;;;;;14.20;4.78;;;16.60;99.90;;;;;;5117291;28;20613;-60
2023/06/08 08:14:54;;;;;;;14.05;5.57;;;16.70;99.90;;;;;;5117894;28;20059;-60
2023/06/08 08:17:20;;;;;;;16.70;5.93;;;16.70;99.90;;;;;;5117180;28;20103;-60
2023/06/08 08:19:45;;;;;;;10.93;4.50;;;16.80;99.90;;;;;;5120271;28;20036;-60
2023/06/08 08:22:11;;;;;;;12.48;4.30;;;16.90;99.90;;;;;;5119416;28;20491;-59
2023/06/08 08:24:37;;;;;;;11.65;4.28;;;16.90;99.90;;;;;;5120408;28;20522;-60
2023/06/08 08:27:03;;;;;;;15.70;4.65;;;16.90;99.90;;;;;;5121168;28;20540;-60
2023/06/08 08:29:28;;;;;;;12.35;4.20;;;16.90;99.90;;;;;;5120033;28;20039;-59
2023/06/08 08:31:55;;;;;;;14.25;4.15;;;16.90;99.90;;;;;;5118582;28;20046;-59
2023/06/08 08:34:20;;;;;;;12.88;4.93;;;17.10;99.90;;;;;;5114144;28;20131;-60
2023/06/08 08:36:46;;;;;;;12.48;4.10;;;17.30;99.90;;;;;;5099185;28;20040;-59
2023/06/08 08:39:14;;;;;;;13.25;4.47;;;17.10;99.90;;;;;;5099738;28;20036;-59
2023/06/08 08:41:42;;;;;;;15.93;5.47;;;17.10;99.90;;;;;;5099779;28;20040;-61
2023/06/08 08:44:17;;;;;;;10.60;4.03;;;17.20;99.90;;;;;;5100336;28;20043;-59
2023/06/08 08:46:45;;;;;;;13.20;4.40;;;17.20;99.90;;;;;;5099893;28;20133;-63
2023/06/08 08:49:17;;;;;;;15.45;4.50;;;17.20;99.90;;;;;;5099758;28;20046;-60
2023/06/08 08:51:49;;;;;;;12.60;4.35;;;17.20;99.90;;;;;;5099674;28;20051;-60
2023/06/08 08:54:16;;;;;;;14.73;4.97;;;17.30;99.90;;;;;;5099276;28;20044;-60
2023/06/08 08:56:42;;;;;;;13.75;4.82;;;17.30;99.90;;;;;;5099997;28;20044;-60
2023/06/08 08:59:08;;;;;;;9.18;4.47;;;17.30;99.90;;;;;;5099607;28;20072;-60
2023/06/08 09:01:34;;;;;;;12.63;4.35;;;17.50;99.90;;;;;;5099528;28;20095;-60
2023/06/08 09:04:01;;;;;;;12.90;4.70;;;17.20;99.90;;;;;;5099408;28;20063;-60
2023/06/08 09:06:30;;;;;;;12.20;4.35;;;17.40;99.90;;;;;;5099064;28;20050;-60
2023/06/08 09:08:56;;;;;;;10.95;4.60;;;17.50;99.90;;;;;;5099150;28;20480;-60
2023/06/08 09:11:23;;;;;;;15.63;5.15;;;17.60;99.90;;;;;;5097916;28;20714;-60
2023/06/08 09:14:07;;;;;;;12.40;4.38;;;17.50;99.90;;;;;;5098723;28;20070;-60
2023/06/08 09:16:43;;;;;;;12.15;4.10;;;17.90;99.90;;;;;;5098576;28;20095;-59
2023/06/08 09:19:10;;;;;;;13.05;4.20;;;17.90;99.90;;;;;;5111584;28;20070;-60
2023/06/08 09:21:35;;;;;;;10.73;3.78;;;17.90;99.90;;;;;;5117171;28;20047;-59
2023/06/08 09:24:11;;;;;;;17.92;4.68;;;17.80;99.90;;;;;;5119323;28;20044;-60
2023/06/08 09:26:48;;;;;;;14.98;4.43;;;17.80;99.90;;;;;;5119473;28;20050;-59
2023/06/08 09:29:36;;;;;;;10.95;3.90;;;17.90;99.90;;;;;;5119101;28;20036;-59
2023/06/08 09:32:02;;;;;;;10.60;4.00;;;18.00;99.90;;;;;;5118978;28;20600;-59
2023/06/08 09:34:33;;;;;;;12.95;3.70;;;18.00;99.90;;;;;;5118610;28;20096;-59
2023/06/08 09:37:10;;;;;;;11.30;3.60;;;18.00;99.90;;;;;;5119136;28;20486;-59
2023/06/08 09:39:39;;;;;;;10.30;3.65;;;18.10;99.90;;;;;;5119555;28;20043;-60
2023/06/08 09:42:06;;;;;;;7.45;3.30;;;17.90;99.90;;;;;;5118645;28;20047;-60
2023/06/08 09:44:32;;;;;;;8.25;3.45;;;18.00;99.90;;;;;;5117156;28;20067;-60
2023/06/08 09:46:57;;;;;;;12.95;4.65;;;18.20;99.90;;;;;;5118136;28;20048;-59
2023/06/08 09:49:23;;;;;;;11.45;3.97;;;18.20;99.90;;;;;;5118587;28;20071;-59
2023/06/08 09:51:51;;;;;;;12.15;4.10;;;18.20;99.90;;;;;;5118566;28;20040;-60
2023/06/08 09:54:20;;;;;;;12.15;3.60;;;18.30;99.90;;;;;;5118711;28;20046;-58
2023/06/08 09:56:57;;;;;;;9.20;3.28;;;18.20;99.90;;;;;;5119469;28;20055;-60
2023/06/08 09:59:28;;;;;;;12.30;4.40;;;18.30;99.90;;;;;;5118633;28;20039;-59
2023/06/08 10:01:57;;;;;;;10.52;4.10;;;18.30;99.90;;;;;;5118295;28;20044;-60
2023/06/08 10:04:26;;;;;;;12.98;3.78;;;18.10;99.90;;;;;;5116951;28;20060;-60
2023/06/08 10:07:07;;;;;;;10.00;3.45;;;18.20;99.90;;;;;;5118828;28;20052;-59
2023/06/08 10:09:37;;;;;;;16.08;4.15;;;18.50;99.90;;;;;;5117345;28;20058;-59
2023/06/08 10:12:03;;;;;;;10.25;3.40;;;18.40;99.90;;;;;;5118110;28;20150;-60
2023/06/08 10:14:31;;;;;;;10.55;4.47;;;18.30;99.90;;;;;;5118850;28;20067;-59
2023/06/08 10:16:57;;;;;;;9.95;3.65;;;18.40;99.90;;;;;;5118390;28;20055;-60
2023/06/08 10:19:24;;;;;;;9.88;4.25;;;18.40;99.90;;;;;;5118405;28;20922;-59
2023/06/08 10:21:52;;;;;;;10.30;4.30;;;18.50;99.90;;;;;;5118563;28;20048;-59
2023/06/08 10:24:20;;;;;;;10.18;4.30;;;18.40;99.90;;;;;;5118351;28;20385;-59
2023/06/08 10:26:48;;;;;;;15.32;5.18;;;18.60;99.90;;;;;;5118823;28;20036;-60
2023/06/08 10:29:14;;;;;;;14.07;4.15;;;18.70;99.90;;;;;;5117900;28;20044;-60
2023/06/08 10:31:41;;;;;;;12.63;4.60;;;18.80;99.90;;;;;;5118161;28;20597;-59
2023/06/08 10:34:09;;;;;;;10.23;4.20;;;18.80;99.90;;;;;;5118313;28;20048;-60
2023/06/08 10:36:38;;;;;;;10.85;4.13;;;19.00;99.90;;;;;;5118386;28;20468;-59
2023/06/08 10:39:10;;;;;;;9.93;3.75;;;18.90;99.90;;;;;;5117868;28;20135;-59
2023/06/08 10:41:41;;;;;;;10.20;3.42;;;18.90;99.90;;;;;;5117946;28;20410;-58
2023/06/08 10:44:32;;;;;;;13.15;3.53;;;18.70;99.90;;;;;;5118663;28;20118;-60
2023/06/08 10:47:05;;;;;;;13.80;4.38;;;18.80;99.90;;;;;;5118048;28;20039;-59
2023/06/08 10:49:33;;;;;;;12.65;3.90;;;19.10;99.90;;;;;;5118229;28;20062;-59
2023/06/08 10:52:03;;;;;;;10.68;4.38;;;19.10;99.90;;;;;;5117529;28;20572;-60
2023/06/08 10:54:30;;;;;;;13.80;5.00;;;18.90;99.90;;;;;;5117630;28;20651;-60
2023/06/08 10:57:04;;;;;;;10.32;3.88;;;18.90;99.90;;;;;;5120163;28;20058;-60
2023/06/08 10:59:35;;;;;;;10.65;4.30;;;19.10;99.90;;;;;;5122524;28;20043;-59
2023/06/08 11:02:03;;;;;;;10.85;4.00;;;19.10;99.90;;;;;;5120704;28;20048;-60
2023/06/08 11:04:30;;;;;;;9.10;3.53;;;19.10;99.90;;;;;;5121963;28;20040;-60
2023/06/08 11:07:03;;;;;;;9.90;3.45;;;19.10;99.90;;;;;;5122027;28;20044;-59
2023/06/08 11:09:34;;;;;;;11.07;4.13;;;18.90;99.90;;;;;;5122585;28;20048;-60
2023/06/08 11:12:01;;;;;;;9.88;3.60;;;18.90;99.90;;;;;;5121826;28;20071;-59
2023/06/08 11:14:27;;;;;;;10.77;3.42;;;19.00;99.90;;;;;;5122342;28;20058;-60
2023/06/08 11:16:55;;;;;;;11.43;3.42;;;18.90;99.90;;;;;;5121952;28;20487;-59
2023/06/08 11:19:22;;;;;;;10.35;3.55;;;18.90;99.90;;;;;;5121787;28;20047;-60
2023/06/08 11:21:53;;;;;;;10.52;3.47;;;18.90;99.90;;;;;;5121835;28;20066;-60
2023/06/08 11:24:28;;;;;;;11.30;3.27;;;19.20;99.90;;;;;;5120365;28;20058;-60
2023/06/08 11:27:01;;;;;;;13.98;4.20;;;19.40;99.90;;;;;;5122135;28;20044;-59
2023/06/08 11:29:27;;;;;;;12.30;3.78;;;19.30;99.90;;;;;;5121461;28;20118;-59
2023/06/08 11:31:54;;;;;;;11.40;3.55;;;19.20;99.90;;;;;;5121148;28;20051;-59
2023/06/08 11:34:20;;;;;;;13.10;3.85;;;19.50;99.90;;;;;;5120418;28;20094;-59
2023/06/08 11:36:48;;;;;;;11.75;4.00;;;19.50;99.90;;;;;;5121620;28;20055;-60
2023/06/08 11:39:14;;;;;;;7.15;3.35;;;19.50;99.90;;;;;;5121766;28;20090;-59
2023/06/08 11:41:46;;;;;;;11.73;3.30;;;19.70;99.90;;;;;;5121141;28;20083;-60
2023/06/08 11:44:13;;;;;;;11.35;3.30;;;19.60;99.90;;;;;;5120268;28;20071;-61
2023/06/08 11:46:39;;;;;;;13.85;3.75;;;19.50;99.90;;;;;;5121314;28;20082;-60
2023/06/08 11:49:10;;;;;;;9.77;3.83;;;19.40;99.90;;;;;;5121462;28;20044;-60
2023/06/08 11:51:46;;;;;;;11.60;3.53;;;19.50;99.90;;;;;;5121425;28;20055;-60
2023/06/08 11:54:12;;;;;;;9.95;4.28;;;19.70;99.90;;;;;;5118888;28;20079;-60
2023/06/08 11:56:37;;;;;;;11.65;3.33;;;19.60;99.90;;;;;;5121818;28;20035;-61
2023/06/08 11:59:06;;;;;;;10.30;3.00;;;19.50;99.90;;;;;;5121244;28;20044;-59
2023/06/08 12:01:32;;;;;;;10.80;3.20;;;19.50;99.90;;;;;;5120911;28;20071;-60
2023/06/08 12:03:58;;;;;;;10.15;2.70;;;19.60;99.90;;;;;;5121438;28;20398;-59
2023/06/08 12:06:26;;;;;;;10.32;2.58;;;19.50;99.90;;;;;;5120989;28;20035;-60
2023/06/08 12:08:55;;;;;;;10.73;2.65;;;19.40;99.90;;;;;;5120196;28;20067;-60
2023/06/08 12:11:21;;;;;;;9.43;2.60;;;19.50;99.90;;;;;;5120704;28;20107;-60
2023/06/08 12:13:48;;;;;;;7.85;2.38;;;19.50;99.90;;;;;;5121197;28;20085;-60
2023/06/08 12:16:13;;;;;;;10.55;2.53;;;19.40;99.90;;;;;;5120960;28;20062;-60
2023/06/08 12:18:42;;;;;;;8.60;2.45;;;19.50;99.90;;;;;;5120983;28;20039;-60
2023/06/08 12:21:09;;;;;;;9.23;2.38;;;19.20;99.90;;;;;;5120831;28;20099;-59
2023/06/08 12:23:35;;;;;;;8.35;2.40;;;19.50;99.90;;;;;;5120290;28;20039;-60
2023/06/08 12:26:02;;;;;;;8.93;2.33;;;19.50;99.90;;;;;;5120808;28;20051;-60
2023/06/08 12:28:27;;;;;;;8.57;2.50;;;19.60;99.90;;;;;;5118927;28;20074;-60
2023/06/08 12:30:54;;;;;;;9.73;2.83;;;19.50;99.90;;;;;;5119426;28;20067;-59
2023/06/08 12:33:21;;;;;;;13.85;3.25;;;19.70;99.90;;;;;;5120026;28;20039;-59
2023/06/08 12:35:51;;;;;;;9.02;2.78;;;19.70;99.90;;;;;;5120461;28;20044;-59
2023/06/08 12:38:20;;;;;;;11.85;3.28;;;19.60;99.90;;;;;;5120298;28;20056;-59